sensor_id;sensor_type;location;lat;lon;timestamp;temperature;humidity
21712;DHT22;11017;53.552;9.910;2023-04-25T00:00:15;9.00;99.90
21712;DHT22;11017;53.552;9.910;2023-04-25T00:02:43;9.00;99.90
21712;DHT22;11017;53.552;9.910;2023-04-25T00:05:12;9.00;99.90
21712;DHT22;11017;53.552;9.910;2023-04-25T00:07:40;8.90;99.90
21712;DHT22;11017;53.552;9.910;2023-04-25T00:10:09;8.80;99.90
21712;DHT22;11017;53.552;9.910;2023-04-25T00:12:36;8.80;99.90
21712;DHT22;11017;53.552;9.910;2023-04-25T00:15:05;8.80;99.90
21712;DHT22;11017;53.552;9.910;2023-04-25T00:17:32;8.90;99.90
21712;DHT22;11017;53.552;9.910;2023-04-25T00:20:01;9.00;99.90
21712;DHT22;11017;53.552;9.910;2023-04-25T00:22:32;9.00;99.90
21712;DHT22;11017;53.552;9.910;2023-04-25T00:24:59;8.80;99.90
21712;DHT22;11017;53.552;9.910;2023-04-25T00:27:26;8.80;99.90
21712;DHT22;11017;53.552;9.910;2023-04-25T00:29:53;8.90;99.90
21712;DHT22;11017;53.552;9.910;2023-04-25T00:32:20;8.90;99.90
21712;DHT22;11017;53.552;9.910;2023-04-25T00:34:47;8.90;99.90
21712;DHT22;11017;53.552;9.910;2023-04-25T00:37:15;8.90;99.90
21712;DHT22;11017;53.552;9.910;2023-04-25T00:39:43;8.80;99.90
21712;DHT22;11017;53.552;9.910;2023-04-25T00:42:11;8.70;99.90
21712;DHT22;11017;53.552;9.910;2023-04-25T00:44:38;8.70;99.90
21712;DHT22;11017;53.552;9.910;2023-04-25T00:47:06;8.80;99.90
21712;DHT22;11017;53.552;9.910;2023-04-25T00:49:33;8.70;99.90
21712;DHT22;11017;53.552;9.910;2023-04-25T00:52:00;8.80;99.90
21712;DHT22;11017;53.552;9.910;2023-04-25T00:54:28;8.70;99.90
21712;DHT22;11017;53.552;9.910;2023-04-25T00:56:56;8.60;99.90
21712;DHT22;11017;53.552;9.910;2023-04-25T00:59:23;8.50;99.90
21712;DHT22;11017;53.552;9.910;2023-04-25T01:01:51;8.70;99.90
21712;DHT22;11017;53.552;9.910;2023-04-25T01:04:18;8.70;99.90
21712;DHT22;11017;53.552;9.910;2023-04-25T01:06:45;8.60;99.90
21712;DHT22;11017;53.552;9.910;2023-04-25T01:09:12;8.50;99.90
21712;DHT22;11017;53.552;9.910;2023-04-25T01:11:41;8.40;99.90
21712;DHT22;11017;53.552;9.910;2023-04-25T01:14:08;8.40;99.90
21712;DHT22;11017;53.552;9.910;2023-04-25T01:16:35;8.40;99.90
21712;DHT22;11017;53.552;9.910;2023-04-25T01:19:05;8.40;99.90
21712;DHT22;11017;53.552;9.910;2023-04-25T01:21:36;8.40;99.90
21712;DHT22;11017;53.552;9.910;2023-04-25T01:24:04;8.60;99.90
21712;DHT22;11017;53.552;9.910;2023-04-25T01:26:31;8.50;99.90
21712;DHT22;11017;53.552;9.910;2023-04-25T01:32:22;8.40;99.90
21712;DHT22;11017;53.552;9.910;2023-04-25T01:34:49;8.40;99.90
21712;DHT22;11017;53.552;9.910;2023-04-25T01:37:18;8.30;99.90
21712;DHT22;11017;53.552;9.910;2023-04-25T01:39:45;8.20;99.90
21712;DHT22;11017;53.552;9.910;2023-04-25T01:42:13;8.20;99.90
21712;DHT22;11017;53.552;9.910;2023-04-25T01:44:39;8.40;99.90
21712;DHT22;11017;53.552;9.910;2023-04-25T01:47:06;8.30;99.90
21712;DHT22;11017;53.552;9.910;2023-04-25T01:49:33;8.10;99.90
21712;DHT22;11017;53.552;9.910;2023-04-25T01:52:00;8.30;99.90
21712;DHT22;11017;53.552;9.910;2023-04-25T01:54:29;8.20;99.90
21712;DHT22;11017;53.552;9.910;2023-04-25T01:56:57;8.20;99.90
21712;DHT22;11017;53.552;9.910;2023-04-25T01:59:24;8.10;99.90
21712;DHT22;11017;53.552;9.910;2023-04-25T02:01:51;8.10;99.90
21712;DHT22;11017;53.552;9.910;2023-04-25T02:04:18;8.20;99.90
21712;DHT22;11017;53.552;9.910;2023-04-25T02:06:45;8.10;99.90
21712;DHT22;11017;53.552;9.910;2023-04-25T02:09:12;8.10;99.90
21712;DHT22;11017;53.552;9.910;2023-04-25T02:14:50;7.90;99.90
21712;DHT22;11017;53.552;9.910;2023-04-25T02:17:17;7.90;99.90
21712;DHT22;11017;53.552;9.910;2023-04-25T02:19:44;8.00;99.90
21712;DHT22;11017;53.552;9.910;2023-04-25T02:22:11;8.10;99.90
21712;DHT22;11017;53.552;9.910;2023-04-25T02:24:38;8.00;99.90
21712;DHT22;11017;53.552;9.910;2023-04-25T02:27:05;7.90;99.90
21712;DHT22;11017;53.552;9.910;2023-04-25T02:29:33;8.00;99.90
21712;DHT22;11017;53.552;9.910;2023-04-25T02:32:01;7.90;99.90
21712;DHT22;11017;53.552;9.910;2023-04-25T02:34:28;7.90;99.90
21712;DHT22;11017;53.552;9.910;2023-04-25T02:36:55;7.90;99.90
21712;DHT22;11017;53.552;9.910;2023-04-25T02:39:22;7.90;99.90
21712;DHT22;11017;53.552;9.910;2023-04-25T02:41:51;8.00;99.90
21712;DHT22;11017;53.552;9.910;2023-04-25T02:44:18;7.90;99.90
21712;DHT22;11017;53.552;9.910;2023-04-25T02:46:45;7.90;99.90
21712;DHT22;11017;53.552;9.910;2023-04-25T02:49:13;7.80;99.90
21712;DHT22;11017;53.552;9.910;2023-04-25T02:51:40;7.90;99.90
21712;DHT22;11017;53.552;9.910;2023-04-25T02:54:07;7.80;99.90
21712;DHT22;11017;53.552;9.910;2023-04-25T02:56:34;7.70;99.90
21712;DHT22;11017;53.552;9.910;2023-04-25T02:59:01;7.80;99.90
21712;DHT22;11017;53.552;9.910;2023-04-25T03:01:28;7.80;99.90
21712;DHT22;11017;53.552;9.910;2023-04-25T03:03:55;7.80;99.90
21712;DHT22;11017;53.552;9.910;2023-04-25T03:06:23;7.80;99.90
21712;DHT22;11017;53.552;9.910;2023-04-25T03:08:51;7.80;99.90
21712;DHT22;11017;53.552;9.910;2023-04-25T03:11:19;7.80;99.90
21712;DHT22;11017;53.552;9.910;2023-04-25T03:13:46;7.70;99.90
21712;DHT22;11017;53.552;9.910;2023-04-25T03:16:13;7.50;99.90
21712;DHT22;11017;53.552;9.910;2023-04-25T03:18:40;7.30;99.90
21712;DHT22;11017;53.552;9.910;2023-04-25T03:21:07;7.30;99.90
21712;DHT22;11017;53.552;9.910;2023-04-25T03:23:35;7.30;99.90
21712;DHT22;11017;53.552;9.910;2023-04-25T03:26:02;7.30;99.90
21712;DHT22;11017;53.552;9.910;2023-04-25T03:28:29;7.20;99.90
21712;DHT22;11017;53.552;9.910;2023-04-25T03:30:56;7.10;99.90
21712;DHT22;11017;53.552;9.910;2023-04-25T03:33:23;7.00;99.90
21712;DHT22;11017;53.552;9.910;2023-04-25T03:35:50;7.10;99.90
21712;DHT22;11017;53.552;9.910;2023-04-25T03:38:17;7.00;99.90
21712;DHT22;11017;53.552;9.910;2023-04-25T03:40:45;7.00;99.90
21712;DHT22;11017;53.552;9.910;2023-04-25T03:43:12;7.10;99.90
21712;DHT22;11017;53.552;9.910;2023-04-25T03:45:39;7.10;99.90
21712;DHT22;11017;53.552;9.910;2023-04-25T03:48:06;7.20;99.90
21712;DHT22;11017;53.552;9.910;2023-04-25T03:50:33;7.20;99.90
21712;DHT22;11017;53.552;9.910;2023-04-25T03:53:00;7.30;99.90
21712;DHT22;11017;53.552;9.910;2023-04-25T03:55:30;7.20;99.90
21712;DHT22;11017;53.552;9.910;2023-04-25T03:57:59;7.20;99.90
21712;DHT22;11017;53.552;9.910;2023-04-25T04:00:26;7.40;99.90
21712;DHT22;11017;53.552;9.910;2023-04-25T04:02:53;7.20;99.90
21712;DHT22;11017;53.552;9.910;2023-04-25T04:05:20;7.20;99.90
21712;DHT22;11017;53.552;9.910;2023-04-25T04:07:47;7.20;99.90
21712;DHT22;11017;53.552;9.910;2023-04-25T04:10:14;7.10;99.90
21712;DHT22;11017;53.552;9.910;2023-04-25T04:12:41;7.20;99.90
21712;DHT22;11017;53.552;9.910;2023-04-25T04:15:10;7.10;99.90
21712;DHT22;11017;53.552;9.910;2023-04-25T04:17:37;7.10;99.90
21712;DHT22;11017;53.552;9.910;2023-04-25T04:20:05;7.10;99.90
21712;DHT22;11017;53.552;9.910;2023-04-25T04:22:33;7.10;99.90
21712;DHT22;11017;53.552;9.910;2023-04-25T04:25:00;7.10;99.90
21712;DHT22;11017;53.552;9.910;2023-04-25T04:27:28;7.20;99.90
21712;DHT22;11017;53.552;9.910;2023-04-25T04:29:55;7.20;99.90
21712;DHT22;11017;53.552;9.910;2023-04-25T04:32:24;7.10;99.90
21712;DHT22;11017;53.552;9.910;2023-04-25T04:34:53;7.00;99.90
21712;DHT22;11017;53.552;9.910;2023-04-25T04:37:20;7.10;99.90
21712;DHT22;11017;53.552;9.910;2023-04-25T04:39:49;7.00;99.90
21712;DHT22;11017;53.552;9.910;2023-04-25T04:42:17;6.90;99.90
21712;DHT22;11017;53.552;9.910;2023-04-25T04:44:44;7.10;99.90
21712;DHT22;11017;53.552;9.910;2023-04-25T04:47:11;7.10;99.90
21712;DHT22;11017;53.552;9.910;2023-04-25T04:49:40;7.20;99.90
21712;DHT22;11017;53.552;9.910;2023-04-25T04:52:08;7.20;99.90
21712;DHT22;11017;53.552;9.910;2023-04-25T04:54:35;7.30;99.90
21712;DHT22;11017;53.552;9.910;2023-04-25T04:57:02;7.20;99.90
21712;DHT22;11017;53.552;9.910;2023-04-25T04:59:29;7.30;99.90
21712;DHT22;11017;53.552;9.910;2023-04-25T05:02:01;7.30;99.90
21712;DHT22;11017;53.552;9.910;2023-04-25T05:04:28;7.10;99.90
21712;DHT22;11017;53.552;9.910;2023-04-25T05:06:56;7.00;99.90
21712;DHT22;11017;53.552;9.910;2023-04-25T05:09:23;7.20;99.90
21712;DHT22;11017;53.552;9.910;2023-04-25T05:11:51;7.20;99.90
21712;DHT22;11017;53.552;9.910;2023-04-25T05:14:18;7.20;99.90
21712;DHT22;11017;53.552;9.910;2023-04-25T05:16:45;7.10;99.90
21712;DHT22;11017;53.552;9.910;2023-04-25T05:19:12;7.00;99.90
21712;DHT22;11017;53.552;9.910;2023-04-25T05:21:39;7.10;99.90
21712;DHT22;11017;53.552;9.910;2023-04-25T05:24:07;7.20;99.90
21712;DHT22;11017;53.552;9.910;2023-04-25T05:26:34;7.00;99.90
21712;DHT22;11017;53.552;9.910;2023-04-25T05:29:01;7.10;99.90
21712;DHT22;11017;53.552;9.910;2023-04-25T05:31:28;7.10;99.90
21712;DHT22;11017;53.552;9.910;2023-04-25T05:33:55;7.20;99.90
21712;DHT22;11017;53.552;9.910;2023-04-25T05:36:22;7.40;99.90
21712;DHT22;11017;53.552;9.910;2023-04-25T05:38:49;7.30;99.90
21712;DHT22;11017;53.552;9.910;2023-04-25T05:41:17;7.40;99.90
21712;DHT22;11017;53.552;9.910;2023-04-25T05:43:44;7.30;99.90
21712;DHT22;11017;53.552;9.910;2023-04-25T05:46:14;7.40;99.90
21712;DHT22;11017;53.552;9.910;2023-04-25T05:48:42;7.30;99.90
21712;DHT22;11017;53.552;9.910;2023-04-25T05:51:09;7.40;99.90
21712;DHT22;11017;53.552;9.910;2023-04-25T05:53:36;7.50;99.90
21712;DHT22;11017;53.552;9.910;2023-04-25T05:56:03;7.60;99.90
21712;DHT22;11017;53.552;9.910;2023-04-25T05:58:31;7.60;99.90
21712;DHT22;11017;53.552;9.910;2023-04-25T06:00:58;7.60;99.90
21712;DHT22;11017;53.552;9.910;2023-04-25T06:03:26;7.60;99.90
21712;DHT22;11017;53.552;9.910;2023-04-25T06:05:52;7.60;99.90
21712;DHT22;11017;53.552;9.910;2023-04-25T06:08:19;7.70;99.90
21712;DHT22;11017;53.552;9.910;2023-04-25T06:10:46;7.80;99.90
21712;DHT22;11017;53.552;9.910;2023-04-25T06:13:13;8.00;99.90
21712;DHT22;11017;53.552;9.910;2023-04-25T06:15:42;7.80;99.90
21712;DHT22;11017;53.552;9.910;2023-04-25T06:18:09;7.70;99.90
21712;DHT22;11017;53.552;9.910;2023-04-25T06:20:36;7.60;99.90
21712;DHT22;11017;53.552;9.910;2023-04-25T06:23:03;7.80;99.90
21712;DHT22;11017;53.552;9.910;2023-04-25T06:25:30;7.70;99.90
21712;DHT22;11017;53.552;9.910;2023-04-25T06:27:59;7.90;99.90
21712;DHT22;11017;53.552;9.910;2023-04-25T06:30:26;7.80;99.90
21712;DHT22;11017;53.552;9.910;2023-04-25T06:32:54;7.50;99.90
21712;DHT22;11017;53.552;9.910;2023-04-25T06:35:21;7.40;99.90
21712;DHT22;11017;53.552;9.910;2023-04-25T06:37:48;7.30;99.90
21712;DHT22;11017;53.552;9.910;2023-04-25T06:40:15;7.30;99.90
21712;DHT22;11017;53.552;9.910;2023-04-25T06:42:43;7.40;99.90
21712;DHT22;11017;53.552;9.910;2023-04-25T06:45:10;7.80;99.90
21712;DHT22;11017;53.552;9.910;2023-04-25T06:47:37;7.80;99.90
21712;DHT22;11017;53.552;9.910;2023-04-25T06:50:09;7.80;99.90
21712;DHT22;11017;53.552;9.910;2023-04-25T06:52:36;8.10;99.90
21712;DHT22;11017;53.552;9.910;2023-04-25T06:55:03;8.30;99.90
21712;DHT22;11017;53.552;9.910;2023-04-25T06:57:31;8.20;99.90
21712;DHT22;11017;53.552;9.910;2023-04-25T06:59:58;8.20;99.90
21712;DHT22;11017;53.552;9.910;2023-04-25T07:02:24;8.40;99.90
21712;DHT22;11017;53.552;9.910;2023-04-25T07:04:51;8.30;99.90
21712;DHT22;11017;53.552;9.910;2023-04-25T07:07:20;8.40;99.90
21712;DHT22;11017;53.552;9.910;2023-04-25T07:09:46;8.30;99.90
21712;DHT22;11017;53.552;9.910;2023-04-25T07:12:13;8.50;99.90
21712;DHT22;11017;53.552;9.910;2023-04-25T07:14:40;8.50;99.90
21712;DHT22;11017;53.552;9.910;2023-04-25T07:17:07;8.70;99.90
21712;DHT22;11017;53.552;9.910;2023-04-25T07:19:34;8.80;99.90
21712;DHT22;11017;53.552;9.910;2023-04-25T07:22:03;8.70;99.90
21712;DHT22;11017;53.552;9.910;2023-04-25T07:24:31;8.60;99.90
21712;DHT22;11017;53.552;9.910;2023-04-25T07:26:58;8.50;99.90
21712;DHT22;11017;53.552;9.910;2023-04-25T07:29:27;8.60;99.90
21712;DHT22;11017;53.552;9.910;2023-04-25T07:31:55;8.70;99.90
21712;DHT22;11017;53.552;9.910;2023-04-25T07:34:22;8.60;99.90
21712;DHT22;11017;53.552;9.910;2023-04-25T07:36:49;8.60;99.90
21712;DHT22;11017;53.552;9.910;2023-04-25T07:39:16;8.70;99.90
21712;DHT22;11017;53.552;9.910;2023-04-25T07:41:45;9.00;99.90
21712;DHT22;11017;53.552;9.910;2023-04-25T07:44:12;9.10;99.90
21712;DHT22;11017;53.552;9.910;2023-04-25T07:46:39;9.20;99.90
21712;DHT22;11017;53.552;9.910;2023-04-25T07:49:05;9.30;99.90
21712;DHT22;11017;53.552;9.910;2023-04-25T07:51:32;9.40;99.90
21712;DHT22;11017;53.552;9.910;2023-04-25T07:53:59;9.20;99.90
21712;DHT22;11017;53.552;9.910;2023-04-25T07:56:26;9.70;99.90
21712;DHT22;11017;53.552;9.910;2023-04-25T07:58:55;9.60;99.90
21712;DHT22;11017;53.552;9.910;2023-04-25T08:01:21;9.40;99.90
21712;DHT22;11017;53.552;9.910;2023-04-25T08:03:48;9.50;99.90
21712;DHT22;11017;53.552;9.910;2023-04-25T08:06:15;9.70;99.90
21712;DHT22;11017;53.552;9.910;2023-04-25T08:08:42;10.20;99.90
21712;DHT22;11017;53.552;9.910;2023-04-25T08:11:09;10.70;99.90
21712;DHT22;11017;53.552;9.910;2023-04-25T08:13:37;10.80;99.90
21712;DHT22;11017;53.552;9.910;2023-04-25T08:16:05;10.20;99.90
21712;DHT22;11017;53.552;9.910;2023-04-25T08:18:32;10.20;99.90
21712;DHT22;11017;53.552;9.910;2023-04-25T08:20:59;10.00;99.90
21712;DHT22;11017;53.552;9.910;2023-04-25T08:23:26;9.70;99.90
21712;DHT22;11017;53.552;9.910;2023-04-25T08:25:53;9.70;99.90
21712;DHT22;11017;53.552;9.910;2023-04-25T08:28:20;9.50;99.90
21712;DHT22;11017;53.552;9.910;2023-04-25T08:30:47;9.40;99.90
21712;DHT22;11017;53.552;9.910;2023-04-25T08:33:15;9.50;99.90
21712;DHT22;11017;53.552;9.910;2023-04-25T08:35:43;10.10;99.90
21712;DHT22;11017;53.552;9.910;2023-04-25T08:38:10;10.30;99.90
21712;DHT22;11017;53.552;9.910;2023-04-25T08:40:38;10.40;99.90
21712;DHT22;11017;53.552;9.910;2023-04-25T08:43:06;10.40;99.90
21712;DHT22;11017;53.552;9.910;2023-04-25T08:45:39;10.30;99.90
21712;DHT22;11017;53.552;9.910;2023-04-25T08:48:10;10.20;99.90
21712;DHT22;11017;53.552;9.910;2023-04-25T08:50:40;9.90;99.90
21712;DHT22;11017;53.552;9.910;2023-04-25T08:53:12;9.90;99.90
21712;DHT22;11017;53.552;9.910;2023-04-25T08:55:43;9.80;99.90
21712;DHT22;11017;53.552;9.910;2023-04-25T08:58:12;9.80;99.90
21712;DHT22;11017;53.552;9.910;2023-04-25T09:00:39;9.60;99.90
21712;DHT22;11017;53.552;9.910;2023-04-25T09:03:06;8.90;99.90
21712;DHT22;11017;53.552;9.910;2023-04-25T09:05:34;8.90;99.90
21712;DHT22;11017;53.552;9.910;2023-04-25T09:08:03;8.90;99.90
21712;DHT22;11017;53.552;9.910;2023-04-25T09:10:30;8.80;99.90
21712;DHT22;11017;53.552;9.910;2023-04-25T09:13:05;8.80;99.90
21712;DHT22;11017;53.552;9.910;2023-04-25T09:15:32;8.80;99.90
21712;DHT22;11017;53.552;9.910;2023-04-25T09:18:00;8.70;99.90
21712;DHT22;11017;53.552;9.910;2023-04-25T09:20:27;8.90;99.90
21712;DHT22;11017;53.552;9.910;2023-04-25T09:23:05;8.90;99.90
21712;DHT22;11017;53.552;9.910;2023-04-25T09:25:36;9.10;99.90
21712;DHT22;11017;53.552;9.910;2023-04-25T09:28:05;9.50;99.90
21712;DHT22;11017;53.552;9.910;2023-04-25T09:30:34;10.00;99.90
21712;DHT22;11017;53.552;9.910;2023-04-25T09:33:05;11.60;99.90
21712;DHT22;11017;53.552;9.910;2023-04-25T09:35:35;13.10;99.90
21712;DHT22;11017;53.552;9.910;2023-04-25T09:38:12;14.10;99.90
21712;DHT22;11017;53.552;9.910;2023-04-25T09:40:40;11.20;99.90
21712;DHT22;11017;53.552;9.910;2023-04-25T09:43:10;10.00;99.90
21712;DHT22;11017;53.552;9.910;2023-04-25T09:45:45;9.90;99.90
21712;DHT22;11017;53.552;9.910;2023-04-25T09:48:17;9.80;99.90
21712;DHT22;11017;53.552;9.910;2023-04-25T09:50:44;9.60;99.90
21712;DHT22;11017;53.552;9.910;2023-04-25T09:53:13;9.60;99.90
21712;DHT22;11017;53.552;9.910;2023-04-25T09:55:42;9.40;99.90
21712;DHT22;11017;53.552;9.910;2023-04-25T09:58:11;9.90;99.90
21712;DHT22;11017;53.552;9.910;2023-04-25T10:00:39;10.40;99.90
21712;DHT22;11017;53.552;9.910;2023-04-25T10:03:07;10.70;99.90
21712;DHT22;11017;53.552;9.910;2023-04-25T10:05:35;10.40;99.90
21712;DHT22;11017;53.552;9.910;2023-04-25T10:08:03;11.50;99.90
21712;DHT22;11017;53.552;9.910;2023-04-25T10:10:33;12.90;99.90
21712;DHT22;11017;53.552;9.910;2023-04-25T10:13:04;13.50;99.90
21712;DHT22;11017;53.552;9.910;2023-04-25T10:15:34;13.50;99.90
21712;DHT22;11017;53.552;9.910;2023-04-25T10:18:02;13.70;99.90
21712;DHT22;11017;53.552;9.910;2023-04-25T10:20:29;13.00;99.90
21712;DHT22;11017;53.552;9.910;2023-04-25T10:23:02;12.00;99.90
21712;DHT22;11017;53.552;9.910;2023-04-25T10:25:30;11.30;99.90
21712;DHT22;11017;53.552;9.910;2023-04-25T10:27:59;13.00;99.90
21712;DHT22;11017;53.552;9.910;2023-04-25T10:30:27;14.70;99.90
21712;DHT22;11017;53.552;9.910;2023-04-25T10:32:55;14.50;99.90
21712;DHT22;11017;53.552;9.910;2023-04-25T10:35:25;14.30;99.90
21712;DHT22;11017;53.552;9.910;2023-04-25T10:38:04;13.20;99.90
21712;DHT22;11017;53.552;9.910;2023-04-25T10:40:31;12.30;99.90
21712;DHT22;11017;53.552;9.910;2023-04-25T10:43:35;12.40;99.90
21712;DHT22;11017;53.552;9.910;2023-04-25T10:46:03;14.00;99.90
21712;DHT22;11017;53.552;9.910;2023-04-25T10:48:45;14.20;99.90
21712;DHT22;11017;53.552;9.910;2023-04-25T10:51:16;13.50;99.90
21712;DHT22;11017;53.552;9.910;2023-04-25T10:53:44;13.50;99.90
21712;DHT22;11017;53.552;9.910;2023-04-25T10:56:11;13.40;99.90
21712;DHT22;11017;53.552;9.910;2023-04-25T10:58:44;12.90;99.90
21712;DHT22;11017;53.552;9.910;2023-04-25T11:01:12;12.20;99.90
21712;DHT22;11017;53.552;9.910;2023-04-25T11:03:41;11.90;99.90
21712;DHT22;11017;53.552;9.910;2023-04-25T11:06:15;11.70;99.90
21712;DHT22;11017;53.552;9.910;2023-04-25T11:08:48;11.60;99.90
21712;DHT22;11017;53.552;9.910;2023-04-25T11:11:15;11.20;99.90
21712;DHT22;11017;53.552;9.910;2023-04-25T11:13:44;12.30;99.90
21712;DHT22;11017;53.552;9.910;2023-04-25T11:16:14;13.10;99.90
21712;DHT22;11017;53.552;9.910;2023-04-25T11:18:41;14.50;99.90
21712;DHT22;11017;53.552;9.910;2023-04-25T11:21:08;15.10;99.90
21712;DHT22;11017;53.552;9.910;2023-04-25T11:23:35;16.00;99.90
21712;DHT22;11017;53.552;9.910;2023-04-25T11:26:02;15.90;99.90
21712;DHT22;11017;53.552;9.910;2023-04-25T11:28:29;15.60;99.90
21712;DHT22;11017;53.552;9.910;2023-04-25T11:30:58;15.90;99.90
21712;DHT22;11017;53.552;9.910;2023-04-25T11:33:26;14.70;99.90
21712;DHT22;11017;53.552;9.910;2023-04-25T11:35:54;13.60;99.90
21712;DHT22;11017;53.552;9.910;2023-04-25T11:38:22;12.00;99.90
21712;DHT22;11017;53.552;9.910;2023-04-25T11:40:52;10.70;99.90
21712;DHT22;11017;53.552;9.910;2023-04-25T11:43:20;9.70;99.90
21712;DHT22;11017;53.552;9.910;2023-04-25T11:45:48;9.70;99.90
21712;DHT22;11017;53.552;9.910;2023-04-25T11:48:17;10.50;99.90
21712;DHT22;11017;53.552;9.910;2023-04-25T11:50:44;10.80;99.90
21712;DHT22;11017;53.552;9.910;2023-04-25T11:53:11;10.80;99.90
21712;DHT22;11017;53.552;9.910;2023-04-25T11:55:38;10.70;99.90
21712;DHT22;11017;53.552;9.910;2023-04-25T11:58:05;11.30;99.90
21712;DHT22;11017;53.552;9.910;2023-04-25T12:00:34;11.70;99.90
21712;DHT22;11017;53.552;9.910;2023-04-25T12:03:01;12.90;99.90
21712;DHT22;11017;53.552;9.910;2023-04-25T12:05:31;14.00;99.90
21712;DHT22;11017;53.552;9.910;2023-04-25T12:08:09;14.90;99.90
21712;DHT22;11017;53.552;9.910;2023-04-25T12:10:38;15.30;99.90
21712;DHT22;11017;53.552;9.910;2023-04-25T12:13:19;17.50;99.90
21712;DHT22;11017;53.552;9.910;2023-04-25T12:15:46;18.70;99.90
21712;DHT22;11017;53.552;9.910;2023-04-25T12:18:14;18.00;94.60
21712;DHT22;11017;53.552;9.910;2023-04-25T12:20:42;17.70;95.40
21712;DHT22;11017;53.552;9.910;2023-04-25T12:23:09;18.30;95.00
21712;DHT22;11017;53.552;9.910;2023-04-25T12:25:39;17.50;91.60
21712;DHT22;11017;53.552;9.910;2023-04-25T12:28:11;16.60;93.50
21712;DHT22;11017;53.552;9.910;2023-04-25T12:30:55;15.90;92.30
21712;DHT22;11017;53.552;9.910;2023-04-25T12:33:23;14.70;92.10
21712;DHT22;11017;53.552;9.910;2023-04-25T12:35:52;13.70;94.20
21712;DHT22;11017;53.552;9.910;2023-04-25T12:38:24;13.60;96.70
21712;DHT22;11017;53.552;9.910;2023-04-25T12:40:51;14.10;95.80
21712;DHT22;11017;53.552;9.910;2023-04-25T12:43:18;14.60;94.90
21712;DHT22;11017;53.552;9.910;2023-04-25T12:45:45;15.30;93.10
21712;DHT22;11017;53.552;9.910;2023-04-25T12:48:13;16.50;94.50
21712;DHT22;11017;53.552;9.910;2023-04-25T12:50:40;17.70;91.40
21712;DHT22;11017;53.552;9.910;2023-04-25T12:53:09;15.40;91.50
21712;DHT22;11017;53.552;9.910;2023-04-25T12:55:37;14.20;96.20
21712;DHT22;11017;53.552;9.910;2023-04-25T12:58:04;13.10;99.30
21712;DHT22;11017;53.552;9.910;2023-04-25T13:00:30;12.40;99.90
21712;DHT22;11017;53.552;9.910;2023-04-25T13:02:58;12.90;99.90
21712;DHT22;11017;53.552;9.910;2023-04-25T13:05:25;14.40;99.90
21712;DHT22;11017;53.552;9.910;2023-04-25T13:07:52;16.00;99.90
21712;DHT22;11017;53.552;9.910;2023-04-25T13:10:20;17.70;97.60
21712;DHT22;11017;53.552;9.910;2023-04-25T13:12:47;17.30;94.10
21712;DHT22;11017;53.552;9.910;2023-04-25T13:15:14;15.70;94.80
21712;DHT22;11017;53.552;9.910;2023-04-25T13:17:42;13.20;98.40
21712;DHT22;11017;53.552;9.910;2023-04-25T13:20:09;11.50;99.90
21712;DHT22;11017;53.552;9.910;2023-04-25T13:22:37;10.70;99.90
21712;DHT22;11017;53.552;9.910;2023-04-25T13:25:06;10.50;99.90
21712;DHT22;11017;53.552;9.910;2023-04-25T13:27:35;10.50;99.90
21712;DHT22;11017;53.552;9.910;2023-04-25T13:30:03;11.00;99.90
21712;DHT22;11017;53.552;9.910;2023-04-25T13:32:33;11.20;99.90
21712;DHT22;11017;53.552;9.910;2023-04-25T13:35:02;12.10;99.90
21712;DHT22;11017;53.552;9.910;2023-04-25T13:37:29;12.20;99.90
21712;DHT22;11017;53.552;9.910;2023-04-25T13:39:59;12.80;99.90
21712;DHT22;11017;53.552;9.910;2023-04-25T13:42:27;14.80;99.90
21712;DHT22;11017;53.552;9.910;2023-04-25T13:44:56;14.80;99.90
21712;DHT22;11017;53.552;9.910;2023-04-25T13:47:23;15.60;99.90
21712;DHT22;11017;53.552;9.910;2023-04-25T13:49:50;14.50;99.90
21712;DHT22;11017;53.552;9.910;2023-04-25T13:52:17;11.60;99.90
21712;DHT22;11017;53.552;9.910;2023-04-25T13:54:44;10.30;99.90
21712;DHT22;11017;53.552;9.910;2023-04-25T13:57:11;9.40;99.90
21712;DHT22;11017;53.552;9.910;2023-04-25T13:59:38;8.90;99.90
21712;DHT22;11017;53.552;9.910;2023-04-25T14:02:07;8.60;99.90
21712;DHT22;11017;53.552;9.910;2023-04-25T14:04:34;8.80;99.90
21712;DHT22;11017;53.552;9.910;2023-04-25T14:07:03;8.90;99.90
21712;DHT22;11017;53.552;9.910;2023-04-25T14:09:31;9.40;99.90
21712;DHT22;11017;53.552;9.910;2023-04-25T14:11:58;10.40;99.90
21712;DHT22;11017;53.552;9.910;2023-04-25T14:14:25;13.10;99.90
21712;DHT22;11017;53.552;9.910;2023-04-25T14:16:53;14.60;99.90
21712;DHT22;11017;53.552;9.910;2023-04-25T14:19:21;16.00;99.90
21712;DHT22;11017;53.552;9.910;2023-04-25T14:21:48;16.30;99.90
21712;DHT22;11017;53.552;9.910;2023-04-25T14:24:15;15.90;99.90
21712;DHT22;11017;53.552;9.910;2023-04-25T14:26:43;15.20;99.90
21712;DHT22;11017;53.552;9.910;2023-04-25T14:29:10;13.80;99.90
21712;DHT22;11017;53.552;9.910;2023-04-25T14:31:38;13.10;99.90
21712;DHT22;11017;53.552;9.910;2023-04-25T14:34:05;12.00;99.90
21712;DHT22;11017;53.552;9.910;2023-04-25T14:36:35;11.50;99.90
21712;DHT22;11017;53.552;9.910;2023-04-25T14:39:02;12.50;99.90
21712;DHT22;11017;53.552;9.910;2023-04-25T14:41:30;14.80;99.90
21712;DHT22;11017;53.552;9.910;2023-04-25T14:43:57;15.10;99.90
21712;DHT22;11017;53.552;9.910;2023-04-25T14:46:24;15.10;99.90
21712;DHT22;11017;53.552;9.910;2023-04-25T14:48:51;15.00;99.90
21712;DHT22;11017;53.552;9.910;2023-04-25T14:51:18;15.90;99.90
21712;DHT22;11017;53.552;9.910;2023-04-25T14:53:46;16.50;99.90
21712;DHT22;11017;53.552;9.910;2023-04-25T14:56:13;16.30;99.90
21712;DHT22;11017;53.552;9.910;2023-04-25T14:58:40;17.40;99.90
21712;DHT22;11017;53.552;9.910;2023-04-25T15:01:06;17.20;99.30
21712;DHT22;11017;53.552;9.910;2023-04-25T15:03:33;15.60;99.50
21712;DHT22;11017;53.552;9.910;2023-04-25T15:06:00;15.30;97.90
21712;DHT22;11017;53.552;9.910;2023-04-25T15:08:27;14.20;99.10
21712;DHT22;11017;53.552;9.910;2023-04-25T15:10:55;12.60;99.90
21712;DHT22;11017;53.552;9.910;2023-04-25T15:13:22;11.40;99.90
21712;DHT22;11017;53.552;9.910;2023-04-25T15:15:50;10.90;99.90
21712;DHT22;11017;53.552;9.910;2023-04-25T15:18:20;10.60;99.90
21712;DHT22;11017;53.552;9.910;2023-04-25T15:20:49;11.60;99.90
21712;DHT22;11017;53.552;9.910;2023-04-25T15:23:16;12.00;99.90
21712;DHT22;11017;53.552;9.910;2023-04-25T15:25:43;12.60;99.90
21712;DHT22;11017;53.552;9.910;2023-04-25T15:28:11;13.10;99.90
21712;DHT22;11017;53.552;9.910;2023-04-25T15:30:41;14.60;99.90
21712;DHT22;11017;53.552;9.910;2023-04-25T15:33:08;15.30;99.90
21712;DHT22;11017;53.552;9.910;2023-04-25T15:35:35;16.10;99.90
21712;DHT22;11017;53.552;9.910;2023-04-25T15:38:01;16.40;99.90
21712;DHT22;11017;53.552;9.910;2023-04-25T15:40:28;15.40;99.90
21712;DHT22;11017;53.552;9.910;2023-04-25T15:42:55;13.30;99.90
21712;DHT22;11017;53.552;9.910;2023-04-25T15:45:24;13.60;99.90
21712;DHT22;11017;53.552;9.910;2023-04-25T15:47:53;13.40;99.90
21712;DHT22;11017;53.552;9.910;2023-04-25T15:50:20;14.10;99.90